Time;durP1;ratioP1;P1;durP2;ratioP2;P2;SDS_P1;SDS_P2;PMS_P1;PMS_P2;Temp;Humidity;BMP_temperature;BMP_pressure;BME280_temperature;BME280_humidity;BME280_pressure;Samples;Min_cycle;Max_cycle;Signal;HPM_P1;HPM_P2
2022/03/31 00:00:39;;;;;;;17.52;8.80;;;;;;;;;;7394441;19;20019;-80
2022/03/31 00:03:07;;;;;;;19.35;10.00;;;;;;;;;;7396397;19;20383;-79
2022/03/31 00:05:32;;;;;;;19.30;9.60;;;;;;;;;;7395506;19;20010;-78
2022/03/31 00:08:03;;;;;;;22.25;9.75;;;;;;;;;;7395519;19;20014;-78
2022/03/31 00:10:34;;;;;;;14.77;8.00;;;;;;;;;;7394577;19;20477;-78
2022/03/31 00:13:00;;;;;;;12.52;6.78;;;;;;;;;;7393802;19;20014;-79
2022/03/31 00:15:27;;;;;;;17.13;8.02;;;;;;;;;;7400220;19;20083;-78
2022/03/31 00:17:57;;;;;;;13.73;7.47;;;;;;;;;;7398765;19;20601;-78
2022/03/31 00:20:22;;;;;;;13.90;7.38;;;;;;;;;;7398089;19;20010;-79
2022/03/31 00:22:47;;;;;;;12.93;6.20;;;;;;;;;;7397765;19;20031;-79
2022/03/31 00:25:13;;;;;;;15.50;7.18;;;;;;;;;;7399448;19;20010;-80
2022/03/31 00:27:39;;;;;;;10.35;5.60;;;;;;;;;;7394299;19;20011;-78
2022/03/31 00:30:07;;;;;;;13.05;5.90;;;;;;;;;;7392461;19;20003;-79
2022/03/31 00:32:33;;;;;;;16.27;7.85;;;;;;;;;;7392819;19;20535;-79
2022/03/31 00:34:58;;;;;;;13.13;7.13;;;;;;;;;;7398182;19;20007;-80
2022/03/31 00:37:24;;;;;;;11.55;6.50;;;;;;;;;;7397372;19;20081;-78
2022/03/31 00:39:49;;;;;;;12.02;6.70;;;;;;;;;;7397580;19;20354;-79
2022/03/31 00:42:16;;;;;;;11.20;6.78;;;;;;;;;;7395214;19;20017;-80
2022/03/31 00:44:44;;;;;;;13.45;6.68;;;;;;;;;;7396359;19;20073;-78
2022/03/31 00:47:09;;;;;;;12.60;7.22;;;;;;;;;;7392107;19;20013;-79
2022/03/31 00:49:35;;;;;;;12.30;6.60;;;;;;;;;;7396161;19;19998;-79
2022/03/31 00:52:01;;;;;;;14.57;7.05;;;;;;;;;;7393821;19;20002;-78
2022/03/31 00:54:27;;;;;;;12.85;6.38;;;;;;;;;;7397407;19;20086;-80
2022/03/31 00:56:53;;;;;;;13.48;6.78;;;;;;;;;;7398716;19;20017;-82
2022/03/31 00:59:19;;;;;;;11.60;6.28;;;;;;;;;;7401536;19;20010;-80
2022/03/31 01:01:46;;;;;;;12.13;6.20;;;;;;;;;;7393634;19;20015;-80
2022/03/31 01:04:13;;;;;;;12.52;6.72;;;;;;;;;;7396288;19;20010;-82
2022/03/31 01:06:38;;;;;;;17.08;7.47;;;;;;;;;;7394314;19;20709;-81
2022/03/31 01:09:04;;;;;;;10.18;6.18;;;;;;;;;;7395260;19;20496;-81
2022/03/31 01:11:31;;;;;;;11.50;6.65;;;;;;;;;;7396109;19;20100;-81
2022/03/31 01:13:56;;;;;;;12.18;7.30;;;;;;;;;;7397150;19;20007;-80
2022/03/31 01:16:22;;;;;;;10.80;6.18;;;;;;;;;;7397750;19;20543;-81
2022/03/31 01:18:48;;;;;;;14.57;6.72;;;;;;;;;;7394602;19;20014;-81
2022/03/31 01:21:13;;;;;;;13.57;6.28;;;;;;;;;;7397833;19;20013;-81
2022/03/31 01:23:38;;;;;;;10.77;6.00;;;;;;;;;;7393646;19;20031;-80
2022/03/31 01:26:11;;;;;;;12.88;6.78;;;;;;;;;;7390937;19;20009;-80
2022/03/31 01:28:41;;;;;;;12.73;6.40;;;;;;;;;;7386783;19;20653;-80
2022/03/31 01:31:08;;;;;;;13.73;7.35;;;;;;;;;;7391045;19;20010;-79
2022/03/31 01:33:33;;;;;;;16.92;7.45;;;;;;;;;;7391926;19;20079;-77
2022/03/31 01:35:59;;;;;;;14.05;7.70;;;;;;;;;;7397239;19;20071;-78
2022/03/31 01:38:25;;;;;;;16.20;7.60;;;;;;;;;;7394525;19;20009;-79
2022/03/31 01:40:50;;;;;;;15.43;7.65;;;;;;;;;;7395674;19;20006;-79
2022/03/31 01:43:16;;;;;;;15.98;7.55;;;;;;;;;;7391505;19;20010;-79
2022/03/31 01:45:41;;;;;;;12.18;6.70;;;;;;;;;;7391041;19;20398;-80
2022/03/31 01:48:07;;;;;;;11.30;6.38;;;;;;;;;;7393068;19;20006;-80
2022/03/31 01:50:32;;;;;;;11.32;7.22;;;;;;;;;;7392659;19;20019;-81
2022/03/31 01:52:57;;;;;;;12.43;6.88;;;;;;;;;;7393103;19;19999;-80
2022/03/31 01:55:24;;;;;;;14.13;7.88;;;;;;;;;;7394406;19;20438;-81
2022/03/31 01:57:49;;;;;;;14.32;7.20;;;;;;;;;;7399731;19;20037;-80
2022/03/31 02:00:15;;;;;;;11.27;6.70;;;;;;;;;;7399032;19;20018;-81
2022/03/31 02:02:41;;;;;;;11.70;6.55;;;;;;;;;;7399634;19;20014;-80
2022/03/31 02:05:07;;;;;;;14.45;7.75;;;;;;;;;;7402192;19;20011;-80
2022/03/31 02:07:32;;;;;;;14.30;7.15;;;;;;;;;;7402027;19;20010;-80
2022/03/31 02:09:57;;;;;;;13.35;7.53;;;;;;;;;;7399862;19;20022;-81
2022/03/31 02:12:23;;;;;;;14.75;7.68;;;;;;;;;;7400072;19;20012;-80
2022/03/31 02:14:48;;;;;;;13.65;7.43;;;;;;;;;;7399506;19;20010;-80
2022/03/31 02:17:13;;;;;;;14.02;7.00;;;;;;;;;;7399761;19;20015;-80
2022/03/31 02:19:39;;;;;;;12.63;6.72;;;;;;;;;;7402052;19;20024;-80
2022/03/31 02:22:06;;;;;;;13.98;7.53;;;;;;;;;;7400126;19;20010;-80
2022/03/31 02:24:32;;;;;;;16.02;7.60;;;;;;;;;;7404528;19;20314;-81
2022/03/31 02:26:58;;;;;;;18.20;8.18;;;;;;;;;;7401092;19;20055;-80
2022/03/31 02:29:24;;;;;;;14.02;6.97;;;;;;;;;;7399846;19;20332;-80
2022/03/31 02:31:50;;;;;;;13.15;7.50;;;;;;;;;;7401728;19;20010;-80
2022/03/31 02:34:15;;;;;;;15.48;7.68;;;;;;;;;;7403171;19;20002;-80
2022/03/31 02:36:41;;;;;;;14.13;7.20;;;;;;;;;;7405806;19;20013;-81
2022/03/31 02:39:08;;;;;;;13.15;6.95;;;;;;;;;;7401783;19;20328;-80
2022/03/31 02:41:33;;;;;;;11.48;6.45;;;;;;;;;;7403304;19;20017;-80
2022/03/31 02:43:58;;;;;;;10.68;6.53;;;;;;;;;;7405305;19;20468;-80
2022/03/31 02:46:26;;;;;;;15.27;6.97;;;;;;;;;;7406178;19;20032;-81
2022/03/31 02:48:53;;;;;;;13.27;7.40;;;;;;;;;;7404486;19;20032;-80
2022/03/31 02:51:18;;;;;;;10.75;5.97;;;;;;;;;;7404448;19;20050;-80
2022/03/31 02:56:29;;;;;;;10.90;6.07;;;;;;;;;;7406684;19;20513;-80
2022/03/31 02:58:55;;;;;;;11.90;6.90;;;;;;;;;;7408109;19;20045;-82
2022/03/31 03:01:21;;;;;;;13.65;6.72;;;;;;;;;;7403882;19;20014;-82
2022/03/31 03:03:47;;;;;;;13.45;6.38;;;;;;;;;;7425670;19;20003;-80
2022/03/31 03:06:12;;;;;;;12.75;6.55;;;;;;;;;;7426359;19;19990;-80
2022/03/31 03:08:37;;;;;;;12.40;6.57;;;;;;;;;;7426295;19;20024;-80
2022/03/31 03:11:03;;;;;;;12.88;6.90;;;;;;;;;;7428313;19;20004;-80
2022/03/31 03:13:28;;;;;;;12.00;6.75;;;;;;;;;;7416746;19;20020;-80
2022/03/31 03:15:54;;;;;;;18.00;7.43;;;;;;;;;;7396375;19;20016;-80
2022/03/31 03:18:20;;;;;;;14.82;7.40;;;;;;;;;;7396116;19;20450;-80
2022/03/31 03:20:45;;;;;;;13.05;6.38;;;;;;;;;;7397406;19;20130;-79
2022/03/31 03:23:11;;;;;;;12.45;6.30;;;;;;;;;;7396805;19;20402;-81
2022/03/31 03:25:36;;;;;;;13.35;6.55;;;;;;;;;;7397416;19;20302;-79
2022/03/31 03:28:02;;;;;;;13.80;7.50;;;;;;;;;;7394271;19;20535;-79
2022/03/31 03:30:27;;;;;;;15.82;6.22;;;;;;;;;;7392975;19;20066;-79
2022/03/31 03:32:52;;;;;;;12.77;7.25;;;;;;;;;;7392588;19;20468;-82
2022/03/31 03:35:18;;;;;;;16.55;7.22;;;;;;;;;;7395971;19;19991;-81
2022/03/31 03:37:44;;;;;;;11.98;7.00;;;;;;;;;;7395651;19;20011;-81
2022/03/31 03:40:11;;;;;;;11.27;5.97;;;;;;;;;;7393669;19;20039;-81
2022/03/31 03:42:39;;;;;;;17.83;5.95;;;;;;;;;;7391473;19;20010;-81
2022/03/31 03:45:10;;;;;;;10.30;5.30;;;;;;;;;;7391236;19;20018;-80
2022/03/31 03:47:35;;;;;;;11.27;6.55;;;;;;;;;;7393514;19;20478;-82
2022/03/31 03:50:01;;;;;;;11.57;6.18;;;;;;;;;;7395680;19;20032;-82
2022/03/31 03:52:26;;;;;;;10.95;6.07;;;;;;;;;;7392835;19;20110;-82
2022/03/31 03:54:52;;;;;;;15.05;6.68;;;;;;;;;;7395578;19;20362;-82
2022/03/31 03:57:17;;;;;;;10.27;6.25;;;;;;;;;;7397586;19;20010;-82
2022/03/31 03:59:43;;;;;;;10.63;5.50;;;;;;;;;;7395876;19;20023;-81
2022/03/31 04:02:08;;;;;;;12.30;6.20;;;;;;;;;;7392266;19;20007;-81
2022/03/31 04:04:33;;;;;;;13.43;7.05;;;;;;;;;;7396583;19;20372;-81
2022/03/31 04:07:00;;;;;;;11.70;7.00;;;;;;;;;;7397495;19;20003;-80
2022/03/31 04:09:25;;;;;;;13.25;6.45;;;;;;;;;;7394742;19;20394;-80
2022/03/31 04:11:51;;;;;;;11.60;7.15;;;;;;;;;;7396895;19;20006;-81
2022/03/31 04:14:17;;;;;;;12.95;6.38;;;;;;;;;;7396588;19;20100;-80
2022/03/31 04:16:43;;;;;;;14.93;7.18;;;;;;;;;;7397064;19;20033;-81
2022/03/31 04:19:08;;;;;;;13.35;7.22;;;;;;;;;;7392540;19;20006;-81
2022/03/31 04:21:35;;;;;;;11.73;5.93;;;;;;;;;;7393742;19;20390;-82
2022/03/31 04:24:01;;;;;;;13.77;6.68;;;;;;;;;;7393911;19;20355;-82
2022/03/31 04:26:26;;;;;;;15.65;7.85;;;;;;;;;;7395136;19;20501;-80
2022/03/31 04:28:52;;;;;;;15.52;7.72;;;;;;;;;;7395379;19;20006;-81
2022/03/31 04:31:17;;;;;;;16.52;8.68;;;;;;;;;;7395170;19;20312;-81
2022/03/31 04:33:42;;;;;;;13.23;6.65;;;;;;;;;;7394309;19;20070;-80
2022/03/31 04:36:08;;;;;;;13.50;7.47;;;;;;;;;;7396452;19;20023;-80
2022/03/31 04:38:33;;;;;;;14.48;8.27;;;;;;;;;;7392873;19;20011;-81
2022/03/31 04:40:59;;;;;;;16.25;8.15;;;;;;;;;;7396127;19;20016;-81
2022/03/31 04:43:24;;;;;;;12.32;7.32;;;;;;;;;;7396139;19;20005;-80
2022/03/31 04:45:49;;;;;;;13.32;7.18;;;;;;;;;;7396579;19;20011;-79
2022/03/31 04:48:14;;;;;;;14.18;7.45;;;;;;;;;;7394493;19;20007;-79
2022/03/31 04:50:40;;;;;;;13.90;7.03;;;;;;;;;;7399202;19;20010;-80
2022/03/31 04:53:06;;;;;;;14.00;7.72;;;;;;;;;;7394398;19;19994;-80
2022/03/31 04:55:32;;;;;;;13.98;7.50;;;;;;;;;;7398381;19;20473;-80
2022/03/31 04:57:57;;;;;;;13.63;7.20;;;;;;;;;;7395600;19;20006;-81
2022/03/31 05:00:23;;;;;;;16.80;7.22;;;;;;;;;;7393699;19;20001;-80
2022/03/31 05:02:48;;;;;;;14.85;7.15;;;;;;;;;;7397032;19;20010;-81
2022/03/31 05:05:13;;;;;;;13.85;7.28;;;;;;;;;;7401069;19;20002;-80
2022/03/31 05:07:39;;;;;;;13.07;6.88;;;;;;;;;;7400312;19;20010;-78
2022/03/31 05:10:05;;;;;;;12.48;6.18;;;;;;;;;;7396510;19;20070;-79
2022/03/31 05:12:30;;;;;;;16.88;8.20;;;;;;;;;;7397098;19;20010;-79
2022/03/31 05:14:56;;;;;;;18.92;9.55;;;;;;;;;;7395569;19;20011;-78
2022/03/31 05:17:21;;;;;;;14.52;7.90;;;;;;;;;;7395438;19;20465;-82
2022/03/31 05:19:46;;;;;;;11.43;6.50;;;;;;;;;;7397525;19;20014;-79
2022/03/31 05:22:12;;;;;;;19.52;8.77;;;;;;;;;;7389149;19;20006;-78
2022/03/31 05:24:38;;;;;;;20.60;9.25;;;;;;;;;;7395076;19;20018;-79
2022/03/31 05:27:03;;;;;;;15.02;8.30;;;;;;;;;;7398529;19;20010;-79
2022/03/31 05:29:29;;;;;;;17.85;8.50;;;;;;;;;;7391221;19;20357;-80
2022/03/31 05:31:55;;;;;;;21.02;9.23;;;;;;;;;;7384115;19;20016;-81
2022/03/31 05:34:21;;;;;;;19.92;9.35;;;;;;;;;;7392838;19;20446;-80
2022/03/31 05:36:47;;;;;;;19.73;8.70;;;;;;;;;;7389656;19;20022;-80
2022/03/31 05:39:12;;;;;;;22.10;10.40;;;;;;;;;;7394893;19;20014;-80
2022/03/31 05:41:38;;;;;;;18.23;8.98;;;;;;;;;;7390637;19;20006;-82
2022/03/31 05:44:04;;;;;;;21.27;9.63;;;;;;;;;;7395026;19;20002;-82
2022/03/31 05:46:30;;;;;;;20.90;9.55;;;;;;;;;;7394351;19;20014;-81
2022/03/31 05:48:56;;;;;;;19.23;8.40;;;;;;;;;;7393164;19;20006;-80
2022/03/31 05:51:21;;;;;;;26.77;9.93;;;;;;;;;;7394250;19;20010;-79
2022/03/31 05:53:46;;;;;;;16.77;9.27;;;;;;;;;;7391916;19;20073;-79
2022/03/31 05:56:12;;;;;;;23.65;10.90;;;;;;;;;;7391603;19;21129;-80
2022/03/31 05:58:38;;;;;;;17.23;9.13;;;;;;;;;;7389640;19;20010;-78
2022/03/31 06:01:04;;;;;;;18.00;8.85;;;;;;;;;;7393707;19;20007;-79
2022/03/31 06:03:30;;;;;;;19.80;9.55;;;;;;;;;;7395761;19;19999;-79
2022/03/31 06:05:55;;;;;;;20.65;9.68;;;;;;;;;;7395601;19;20014;-79
2022/03/31 06:08:21;;;;;;;19.98;9.73;;;;;;;;;;7391942;19;20022;-79
2022/03/31 06:10:47;;;;;;;19.23;9.30;;;;;;;;;;7392376;19;20010;-79
2022/03/31 06:13:13;;;;;;;19.05;9.80;;;;;;;;;;7392723;19;20031;-79
2022/03/31 06:15:39;;;;;;;22.60;10.10;;;;;;;;;;7387545;19;20006;-79
2022/03/31 06:18:07;;;;;;;17.30;9.05;;;;;;;;;;7388646;19;20006;-79
2022/03/31 06:20:34;;;;;;;18.85;8.70;;;;;;;;;;7394076;19;20010;-80
2022/03/31 06:23:00;;;;;;;21.50;10.18;;;;;;;;;;7388370;19;20013;-83
2022/03/31 06:25:25;;;;;;;22.50;9.45;;;;;;;;;;7393109;19;20045;-79
2022/03/31 06:27:51;;;;;;;18.33;8.75;;;;;;;;;;7390666;19;20011;-80
2022/03/31 06:30:16;;;;;;;14.43;8.20;;;;;;;;;;7394244;19;20102;-79
2022/03/31 06:32:42;;;;;;;20.27;8.82;;;;;;;;;;7387933;19;20017;-79
2022/03/31 06:35:17;;;;;;;18.58;8.60;;;;;;;;;;7390751;19;20003;-80
2022/03/31 06:37:44;;;;;;;17.45;9.13;;;;;;;;;;7391360;19;20003;-79
2022/03/31 06:40:12;;;;;;;23.27;10.27;;;;;;;;;;7387733;19;20627;-80
2022/03/31 06:42:38;;;;;;;17.52;9.48;;;;;;;;;;7393557;19;20006;-79
2022/03/31 06:45:04;;;;;;;24.45;10.80;;;;;;;;;;7399566;19;20013;-80
2022/03/31 06:47:29;;;;;;;20.05;10.25;;;;;;;;;;7396544;19;20014;-80
2022/03/31 06:49:54;;;;;;;21.95;9.63;;;;;;;;;;7396059;19;20488;-79
2022/03/31 06:52:19;;;;;;;25.30;10.52;;;;;;;;;;7396777;19;20070;-79
2022/03/31 06:54:45;;;;;;;20.15;10.40;;;;;;;;;;7398716;19;20478;-79
2022/03/31 06:57:10;;;;;;;22.15;10.23;;;;;;;;;;7399174;19;20006;-80
2022/03/31 06:59:35;;;;;;;17.35;9.40;;;;;;;;;;7395894;19;20003;-82
2022/03/31 07:02:00;;;;;;;16.45;8.98;;;;;;;;;;7391786;19;20514;-81
2022/03/31 07:04:26;;;;;;;19.10;9.45;;;;;;;;;;7393521;19;20042;-80
2022/03/31 07:06:51;;;;;;;19.30;9.55;;;;;;;;;;7397038;19;20017;-80
2022/03/31 07:09:16;;;;;;;17.50;9.07;;;;;;;;;;7397294;19;19999;-79
2022/03/31 07:11:42;;;;;;;16.50;8.88;;;;;;;;;;7393711;19;20019;-80
2022/03/31 07:14:07;;;;;;;18.92;9.30;;;;;;;;;;7394990;19;20465;-80
2022/03/31 07:16:33;;;;;;;17.23;8.90;;;;;;;;;;7390962;19;20014;-80
2022/03/31 07:18:58;;;;;;;17.23;9.52;;;;;;;;;;7397264;19;20094;-80
2022/03/31 07:21:24;;;;;;;15.45;8.20;;;;;;;;;;7395819;19;20001;-80
2022/03/31 07:23:53;;;;;;;18.40;8.15;;;;;;;;;;7396008;19;20017;-81
2022/03/31 07:26:19;;;;;;;15.77;7.93;;;;;;;;;;7393982;19;20130;-81
2022/03/31 07:28:44;;;;;;;18.38;8.35;;;;;;;;;;7394012;19;20040;-80
2022/03/31 07:31:10;;;;;;;15.63;8.35;;;;;;;;;;7395790;19;20003;-81
2022/03/31 07:33:36;;;;;;;15.40;8.05;;;;;;;;;;7401889;19;20134;-81
2022/03/31 07:36:02;;;;;;;15.40;8.20;;;;;;;;;;7401421;19;19994;-80
2022/03/31 07:38:27;;;;;;;15.95;8.50;;;;;;;;;;7396015;19;20541;-79
2022/03/31 07:40:53;;;;;;;16.38;8.93;;;;;;;;;;7398358;19;19999;-80
2022/03/31 07:43:18;;;;;;;20.45;10.27;;;;;;;;;;7400155;19;20465;-81
2022/03/31 07:45:45;;;;;;;17.38;9.40;;;;;;;;;;7398335;19;20037;-79
2022/03/31 07:48:15;;;;;;;19.05;9.02;;;;;;;;;;7393522;19;20007;-79
2022/03/31 07:50:41;;;;;;;18.75;9.82;;;;;;;;;;7396548;19;19999;-80
2022/03/31 07:53:06;;;;;;;17.67;9.57;;;;;;;;;;7394313;19;20070;-79
2022/03/31 07:55:31;;;;;;;16.98;9.00;;;;;;;;;;7394700;19;20019;-79
2022/03/31 07:57:57;;;;;;;18.73;9.75;;;;;;;;;;7397916;19;20006;-78
2022/03/31 08:00:23;;;;;;;15.40;8.43;;;;;;;;;;7392818;19;20006;-78
2022/03/31 08:02:50;;;;;;;17.67;9.45;;;;;;;;;;7391646;19;20018;-79
2022/03/31 08:05:20;;;;;;;18.88;9.32;;;;;;;;;;7394656;19;19995;-79
2022/03/31 08:07:46;;;;;;;19.20;9.20;;;;;;;;;;7395697;19;20014;-79
2022/03/31 08:10:11;;;;;;;20.52;9.82;;;;;;;;;;7391593;19;20470;-79
2022/03/31 08:12:39;;;;;;;15.48;8.13;;;;;;;;;;7391735;19;20021;-78
2022/03/31 08:15:05;;;;;;;16.92;8.23;;;;;;;;;;7399406;19;20022;-79
2022/03/31 08:17:30;;;;;;;16.92;8.38;;;;;;;;;;7394834;19;20469;-79
2022/03/31 08:19:56;;;;;;;15.82;8.52;;;;;;;;;;7390235;19;20002;-78
2022/03/31 08:22:23;;;;;;;17.58;9.10;;;;;;;;;;7389487;19;20018;-80
2022/03/31 08:24:49;;;;;;;17.88;9.35;;;;;;;;;;7393287;19;20003;-79
2022/03/31 08:27:14;;;;;;;15.98;8.82;;;;;;;;;;7391021;19;20027;-79
2022/03/31 08:29:40;;;;;;;19.23;9.80;;;;;;;;;;7392189;19;20015;-79
2022/03/31 08:32:09;;;;;;;23.40;10.82;;;;;;;;;;7394213;19;20003;-79
2022/03/31 08:34:34;;;;;;;21.40;9.32;;;;;;;;;;7391872;19;20003;-79
2022/03/31 08:37:00;;;;;;;20.30;9.48;;;;;;;;;;7395300;19;20010;-79
2022/03/31 08:39:25;;;;;;;16.48;8.73;;;;;;;;;;7394225;19;20031;-79
2022/03/31 08:41:51;;;;;;;17.58;9.18;;;;;;;;;;7392244;19;20013;-80
2022/03/31 08:44:22;;;;;;;21.48;9.27;;;;;;;;;;7393243;19;20015;-79
2022/03/31 08:46:49;;;;;;;16.27;8.55;;;;;;;;;;7394535;19;20007;-80
2022/03/31 08:49:15;;;;;;;19.05;8.70;;;;;;;;;;7392330;19;20007;-79
2022/03/31 08:51:44;;;;;;;16.88;8.38;;;;;;;;;;7402024;19;20015;-80
2022/03/31 08:54:10;;;;;;;16.77;9.43;;;;;;;;;;7397095;19;20003;-80
2022/03/31 08:56:37;;;;;;;15.65;8.43;;;;;;;;;;7396996;19;20014;-80
2022/03/31 08:59:02;;;;;;;16.25;8.75;;;;;;;;;;7396286;19;20018;-80
2022/03/31 09:01:28;;;;;;;18.23;8.90;;;;;;;;;;7391885;19;20005;-80
2022/03/31 09:03:53;;;;;;;12.20;7.28;;;;;;;;;;7394816;19;20007;-80
2022/03/31 09:06:23;;;;;;;18.30;8.95;;;;;;;;;;7395182;19;20074;-81
2022/03/31 09:08:56;;;;;;;20.60;9.43;;;;;;;;;;7390599;19;19999;-80
2022/03/31 09:11:32;;;;;;;15.43;9.30;;;;;;;;;;7395440;19;20019;-81
2022/03/31 09:14:00;;;;;;;19.67;9.88;;;;;;;;;;7399777;19;20362;-81
2022/03/31 09:16:31;;;;;;;14.45;8.05;;;;;;;;;;7397051;19;20009;-80
2022/03/31 09:19:01;;;;;;;16.00;9.52;;;;;;;;;;7396878;19;20030;-80
2022/03/31 09:21:26;;;;;;;17.92;8.45;;;;;;;;;;7399771;19;20025;-80
2022/03/31 09:23:52;;;;;;;14.30;8.82;;;;;;;;;;7400137;19;20014;-80
2022/03/31 09:26:17;;;;;;;14.48;8.02;;;;;;;;;;7393630;19;20009;-80
2022/03/31 09:28:44;;;;;;;16.27;9.27;;;;;;;;;;7394017;19;20027;-80
2022/03/31 09:31:11;;;;;;;18.73;8.38;;;;;;;;;;7397617;19;20006;-81
2022/03/31 09:33:48;;;;;;;17.50;9.85;;;;;;;;;;7394962;19;20024;-80
2022/03/31 09:36:27;;;;;;;14.00;8.27;;;;;;;;;;7399681;19;20032;-82
2022/03/31 09:38:56;;;;;;;18.17;8.73;;;;;;;;;;7397071;19;20079;-80
2022/03/31 09:41:29;;;;;;;15.85;8.95;;;;;;;;;;7398803;19;20409;-80
2022/03/31 09:43:58;;;;;;;14.60;8.00;;;;;;;;;;7397834;19;20018;-80
2022/03/31 09:46:42;;;;;;;13.55;8.10;;;;;;;;;;7395860;19;20009;-82
2022/03/31 09:49:27;;;;;;;18.60;8.77;;;;;;;;;;7395722;19;20084;-81
2022/03/31 09:51:58;;;;;;;17.50;8.80;;;;;;;;;;7397912;19;20015;-80
2022/03/31 09:54:36;;;;;;;14.48;7.47;;;;;;;;;;7394708;19;19999;-80
2022/03/31 09:57:07;;;;;;;13.15;7.25;;;;;;;;;;7399998;19;20018;-80
2022/03/31 09:59:35;;;;;;;17.45;8.73;;;;;;;;;;7394906;19;20014;-80
2022/03/31 10:02:02;;;;;;;16.80;8.60;;;;;;;;;;7403944;19;20007;-81
2022/03/31 10:04:28;;;;;;;13.30;8.18;;;;;;;;;;7409123;19;20030;-82
2022/03/31 10:06:54;;;;;;;15.75;8.40;;;;;;;;;;7409124;19;20031;-83
2022/03/31 10:09:22;;;;;;;16.35;8.68;;;;;;;;;;7419323;19;19999;-84
2022/03/31 10:11:57;;;;;;;15.68;8.57;;;;;;;;;;7419185;19;20030;-81
2022/03/31 10:14:32;;;;;;;14.52;7.63;;;;;;;;;;7423685;19;20019;-81
2022/03/31 10:16:59;;;;;;;14.75;8.48;;;;;;;;;;7422508;19;20031;-83
2022/03/31 10:19:39;;;;;;;15.73;8.68;;;;;;;;;;7412044;19;20329;-78
2022/03/31 10:22:09;;;;;;;13.25;7.97;;;;;;;;;;7402721;19;20003;-81
2022/03/31 10:24:47;;;;;;;21.10;8.98;;;;;;;;;;7405672;19;20021;-80
2022/03/31 10:27:24;;;;;;;13.93;7.90;;;;;;;;;;7402640;19;20083;-81
2022/03/31 10:29:49;;;;;;;14.55;8.35;;;;;;;;;;7401796;19;20045;-81
2022/03/31 10:32:23;;;;;;;15.68;8.63;;;;;;;;;;7401662;19;20006;-81
2022/03/31 10:34:51;;;;;;;15.20;8.02;;;;;;;;;;7402456;19;20465;-80
2022/03/31 10:37:34;;;;;;;15.20;9.25;;;;;;;;;;7407170;19;20090;-81
2022/03/31 10:40:00;;;;;;;15.50;9.00;;;;;;;;;;7404445;19;20017;-80
2022/03/31 10:42:25;;;;;;;14.52;8.95;;;;;;;;;;7401610;19;20006;-80
2022/03/31 10:45:06;;;;;;;15.35;9.05;;;;;;;;;;7400382;19;20003;-81
2022/03/31 10:47:34;;;;;;;20.38;8.27;;;;;;;;;;7404384;19;20013;-80
2022/03/31 10:50:00;;;;;;;12.07;8.07;;;;;;;;;;7403541;19;20010;-81
2022/03/31 10:52:26;;;;;;;15.38;8.68;;;;;;;;;;7399116;19;20015;-82
2022/03/31 10:54:51;;;;;;;17.27;8.65;;;;;;;;;;7401346;19;20074;-80
2022/03/31 10:57:18;;;;;;;14.27;8.52;;;;;;;;;;7401316;19;20028;-81
2022/03/31 10:59:47;;;;;;;13.60;8.63;;;;;;;;;;7402694;19;20021;-80
2022/03/31 11:02:15;;;;;;;13.02;7.32;;;;;;;;;;7401013;19;20332;-81
2022/03/31 11:04:48;;;;;;;13.23;8.20;;;;;;;;;;7408422;19;20047;-81
2022/03/31 11:07:20;;;;;;;12.13;7.13;;;;;;;;;;7394922;19;20011;-82
2022/03/31 11:09:47;;;;;;;14.23;7.82;;;;;;;;;;7401957;19;20010;-81
2022/03/31 11:12:23;;;;;;;13.35;7.65;;;;;;;;;;7399833;19;20040;-80
2022/03/31 11:15:09;;;;;;;13.77;7.72;;;;;;;;;;7403305;19;20017;-82
2022/03/31 11:17:39;;;;;;;12.77;8.15;;;;;;;;;;7404080;19;20515;-80
2022/03/31 11:20:17;;;;;;;12.00;7.68;;;;;;;;;;7400245;19;20015;-79
2022/03/31 11:22:47;;;;;;;15.85;8.27;;;;;;;;;;7394020;19;20009;-79
2022/03/31 11:25:13;;;;;;;19.02;8.73;;;;;;;;;;7401720;19;20003;-80
2022/03/31 11:27:41;;;;;;;14.48;7.97;;;;;;;;;;7401147;19;20006;-79
2022/03/31 11:30:11;;;;;;;13.60;8.13;;;;;;;;;;7396969;19;20494;-79
2022/03/31 11:32:38;;;;;;;15.63;7.65;;;;;;;;;;7400033;19;20419;-78
2022/03/31 11:35:09;;;;;;;14.10;8.52;;;;;;;;;;7393810;19;20325;-77
2022/03/31 11:37:34;;;;;;;12.85;7.03;;;;;;;;;;7396208;19;20010;-78
2022/03/31 11:40:00;;;;;;;10.95;6.40;;;;;;;;;;7392181;19;20716;-79
2022/03/31 11:42:25;;;;;;;12.27;7.10;;;;;;;;;;7391371;19;20009;-80
2022/03/31 11:44:51;;;;;;;9.52;6.50;;;;;;;;;;7392369;19;20018;-80
2022/03/31 11:47:18;;;;;;;11.45;6.68;;;;;;;;;;7397904;19;20010;-78
2022/03/31 11:49:55;;;;;;;12.23;6.72;;;;;;;;;;7399995;19;20169;-79
2022/03/31 11:52:27;;;;;;;11.65;7.15;;;;;;;;;;7394288;19;20336;-78
2022/03/31 11:54:53;;;;;;;16.45;7.35;;;;;;;;;;7398921;19;20110;-80
2022/03/31 11:57:19;;;;;;;16.08;8.85;;;;;;;;;;7399939;19;20046;-79
2022/03/31 11:59:44;;;;;;;12.73;7.18;;;;;;;;;;7399061;19;20045;-79
2022/03/31 12:02:14;;;;;;;14.38;8.02;;;;;;;;;;7396525;19;20018;-80
2022/03/31 12:04:44;;;;;;;12.63;8.30;;;;;;;;;;7398937;19;20018;-79
2022/03/31 12:07:10;;;;;;;12.88;7.45;;;;;;;;;;7401987;19;20007;-79
2022/03/31 12:09:38;;;;;;;12.25;7.28;;;;;;;;;;7394917;19;20002;-79
2022/03/31 12:12:06;;;;;;;15.60;8.35;;;;;;;;;;7396432;19;20027;-79
2022/03/31 12:14:33;;;;;;;14.32;7.57;;;;;;;;;;7392169;19;20014;-79
2022/03/31 12:17:02;;;;;;;13.27;6.22;;;;;;;;;;7390880;19;20093;-79
2022/03/31 12:19:40;;;;;;;14.68;7.72;;;;;;;;;;7393177;19;20035;-79
2022/03/31 12:22:06;;;;;;;17.15;9.82;;;;;;;;;;7399499;19;20277;-78
2022/03/31 12:24:32;;;;;;;14.30;8.75;;;;;;;;;;7401577;19;20006;-79
2022/03/31 12:27:00;;;;;;;11.90;7.60;;;;;;;;;;7397034;19;20078;-78
2022/03/31 12:29:29;;;;;;;17.50;9.23;;;;;;;;;;7397150;19;20127;-79
2022/03/31 12:32:06;;;;;;;23.67;9.45;;;;;;;;;;7394657;19;20475;-79
2022/03/31 12:34:33;;;;;;;16.02;8.52;;;;;;;;;;7396307;19;20013;-79
2022/03/31 12:36:59;;;;;;;17.00;8.38;;;;;;;;;;7391499;19;19998;-79
2022/03/31 12:39:24;;;;;;;14.93;7.93;;;;;;;;;;7392138;19;20009;-79
2022/03/31 12:41:52;;;;;;;15.23;8.80;;;;;;;;;;7394297;19;20300;-80
2022/03/31 12:44:21;;;;;;;17.77;9.25;;;;;;;;;;7394488;19;20011;-79
2022/03/31 12:46:52;;;;;;;20.67;9.73;;;;;;;;;;7399132;19;20089;-79
2022/03/31 12:49:31;;;;;;;17.65;9.45;;;;;;;;;;7393489;19;20035;-79
2022/03/31 12:51:58;;;;;;;15.85;9.07;;;;;;;;;;7394541;19;20338;-79
2022/03/31 12:54:32;;;;;;;17.42;9.75;;;;;;;;;;7396371;19;20017;-78
2022/03/31 12:57:05;;;;;;;19.70;9.63;;;;;;;;;;7399424;19;20104;-80
2022/03/31 12:59:33;;;;;;;18.67;9.35;;;;;;;;;;7395511;19;20010;-79
2022/03/31 13:02:09;;;;;;;18.15;8.73;;;;;;;;;;7395001;19;20015;-79
2022/03/31 13:04:38;;;;;;;17.73;9.05;;;;;;;;;;7394264;19;20027;-78
2022/03/31 13:07:15;;;;;;;20.42;8.80;;;;;;;;;;7392053;19;20012;-79
2022/03/31 13:09:42;;;;;;;19.33;9.07;;;;;;;;;;7393325;19;20040;-79
2022/03/31 13:12:11;;;;;;;19.88;9.75;;;;;;;;;;7394206;19;20010;-80
2022/03/31 13:14:38;;;;;;;19.08;9.85;;;;;;;;;;7391832;19;20577;-79
2022/03/31 13:17:05;;;;;;;18.42;9.82;;;;;;;;;;7395642;19;20501;-78
2022/03/31 13:19:31;;;;;;;18.45;9.25;;;;;;;;;;7391626;19;20026;-81
2022/03/31 13:21:56;;;;;;;16.50;8.80;;;;;;;;;;7393500;19;20014;-79
2022/03/31 13:24:22;;;;;;;15.63;8.18;;;;;;;;;;7393996;19;20539;-78
2022/03/31 13:26:49;;;;;;;17.23;8.45;;;;;;;;;;7392077;19;20006;-80
2022/03/31 13:29:14;;;;;;;17.05;8.82;;;;;;;;;;7388842;19;20091;-80
2022/03/31 13:31:40;;;;;;;15.02;8.55;;;;;;;;;;7390169;19;20725;-80
2022/03/31 13:34:07;;;;;;;16.13;8.57;;;;;;;;;;7389485;19;21606;-80
2022/03/31 13:36:33;;;;;;;16.50;9.70;;;;;;;;;;7395819;19;20460;-78
2022/03/31 13:38:58;;;;;;;24.55;12.50;;;;;;;;;;7396569;19;20006;-79
2022/03/31 13:41:24;;;;;;;23.90;13.55;;;;;;;;;;7395360;19;20017;-78
2022/03/31 13:43:49;;;;;;;25.60;14.95;;;;;;;;;;7396197;19;20031;-78
2022/03/31 13:46:15;;;;;;;28.20;16.33;;;;;;;;;;7395673;19;20002;-80
2022/03/31 13:48:40;;;;;;;26.25;15.88;;;;;;;;;;7388030;19;20462;-80
2022/03/31 13:51:05;;;;;;;28.05;15.98;;;;;;;;;;7393780;19;20032;-81
2022/03/31 13:53:46;;;;;;;26.52;16.85;;;;;;;;;;7392350;19;20010;-80
2022/03/31 13:56:13;;;;;;;34.00;17.23;;;;;;;;;;7392067;19;20006;-78
2022/03/31 14:01:35;;;;;;;33.47;17.33;;;;;;;;;;7390316;19;20013;-79
2022/03/31 14:04:01;;;;;;;27.00;16.48;;;;;;;;;;7383869;19;20158;-79
2022/03/31 14:06:29;;;;;;;25.55;15.30;;;;;;;;;;7395067;19;20018;-79
2022/03/31 14:08:55;;;;;;;28.17;17.52;;;;;;;;;;7391549;19;20017;-79
2022/03/31 14:11:21;;;;;;;24.45;16.05;;;;;;;;;;7392581;19;20031;-80
2022/03/31 14:13:47;;;;;;;28.48;16.65;;;;;;;;;;7388192;19;20035;-79
2022/03/31 14:16:13;;;;;;;33.45;18.05;;;;;;;;;;7389838;19;20513;-79
2022/03/31 14:18:41;;;;;;;29.85;18.70;;;;;;;;;;7391885;19;20035;-81
2022/03/31 14:21:07;;;;;;;29.80;17.70;;;;;;;;;;7390778;19;20002;-80
2022/03/31 14:23:32;;;;;;;30.42;17.77;;;;;;;;;;7392720;19;20023;-78
2022/03/31 14:25:59;;;;;;;26.65;16.95;;;;;;;;;;7393463;19;20021;-79
2022/03/31 14:28:35;;;;;;;27.33;16.45;;;;;;;;;;7394088;19;20470;-79
2022/03/31 14:31:05;;;;;;;29.13;16.42;;;;;;;;;;7394853;19;20031;-79
2022/03/31 14:33:31;;;;;;;31.25;17.88;;;;;;;;;;7400100;19;20006;-80